Time;durP1;ratioP1;P1;durP2;ratioP2;P2;SDS_P1;SDS_P2;PMS_P1;PMS_P2;Temp;Humidity;BMP_temperature;BMP_pressure;BME280_temperature;BME280_humidity;BME280_pressure;Samples;Min_cycle;Max_cycle;Signal;HPM_P1;HPM_P2
2022/12/04 00:01:33;;;;;;;101.43;30.85;;;-0.80;99.90;;;;;;5053752;28;20379;-85
2022/12/04 00:04:00;;;;;;;113.68;35.60;;;-0.80;99.90;;;;;;5056737;28;20550;-85
2022/12/04 00:06:26;;;;;;;102.10;33.72;;;-0.80;99.90;;;;;;5068011;28;20067;-85
2022/12/04 00:08:53;;;;;;;104.40;33.30;;;-0.80;99.90;;;;;;5050542;28;20473;-85
2022/12/04 00:11:21;;;;;;;119.63;35.90;;;-0.80;99.90;;;;;;5089235;28;20028;-85
2022/12/04 00:13:47;;;;;;;96.85;33.58;;;-0.80;99.90;;;;;;5072323;28;20024;-85
2022/12/04 00:16:19;;;;;;;97.13;32.53;;;-0.80;99.90;;;;;;5064041;28;20115;-85
2022/12/04 00:18:45;;;;;;;106.55;31.80;;;-0.80;99.90;;;;;;5068987;28;20033;-84
2022/12/04 00:21:12;;;;;;;103.30;34.92;;;-0.70;99.90;;;;;;5079016;28;20023;-85
2022/12/04 00:23:39;;;;;;;99.25;33.15;;;-0.80;99.90;;;;;;5070070;28;20373;-85
2022/12/04 00:26:08;;;;;;;101.95;32.58;;;-0.70;99.90;;;;;;5060167;28;20067;-85
2022/12/04 00:28:34;;;;;;;98.85;32.97;;;-0.70;99.90;;;;;;5071719;28;20391;-85
2022/12/04 00:31:03;;;;;;;92.38;31.50;;;-0.70;99.90;;;;;;5054988;28;20114;-85
2022/12/04 00:33:29;;;;;;;99.75;32.35;;;-0.70;99.90;;;;;;5071416;28;20693;-85
2022/12/04 00:35:59;;;;;;;112.20;32.88;;;-0.70;99.90;;;;;;5048843;28;20036;-85
2022/12/04 00:38:24;;;;;;;103.05;34.40;;;-0.80;99.90;;;;;;5066402;28;20035;-85
2022/12/04 00:40:51;;;;;;;106.78;33.42;;;-0.80;99.90;;;;;;5067141;28;20017;-84
2022/12/04 00:43:18;;;;;;;109.05;32.13;;;-0.80;99.90;;;;;;5071762;28;20029;-85
2022/12/04 00:45:43;;;;;;;113.55;33.35;;;-0.80;99.90;;;;;;5072965;28;20079;-85
2022/12/04 00:48:09;;;;;;;118.18;32.35;;;-0.70;99.90;;;;;;5059139;28;20125;-85
2022/12/04 00:50:35;;;;;;;115.28;31.88;;;-0.70;99.90;;;;;;5071764;28;20032;-85
2022/12/04 00:53:01;;;;;;;113.90;30.95;;;-0.70;99.90;;;;;;5057960;28;20032;-85
2022/12/04 00:55:27;;;;;;;105.57;31.25;;;-0.80;99.90;;;;;;5071631;28;20097;-85
2022/12/04 00:57:52;;;;;;;139.52;32.05;;;-0.70;99.90;;;;;;5043940;28;20035;-85
2022/12/04 01:00:18;;;;;;;103.78;29.70;;;-0.80;99.90;;;;;;5071767;28;20024;-85
2022/12/04 01:03:03;;;;;;;103.97;31.17;;;-0.80;99.90;;;;;;5067217;28;20553;-85
2022/12/04 01:05:29;;;;;;;96.35;31.15;;;-0.80;99.90;;;;;;5048440;28;20040;-85
2022/12/04 01:07:55;;;;;;;101.65;32.38;;;-0.80;99.90;;;;;;5071030;28;20021;-85
2022/12/04 01:10:22;;;;;;;97.82;31.38;;;-0.70;99.90;;;;;;5071600;28;20059;-85
2022/12/04 01:12:49;;;;;;;85.40;28.50;;;-0.70;99.90;;;;;;5072805;28;20040;-85
2022/12/04 01:15:16;;;;;;;93.68;28.52;;;-0.80;99.90;;;;;;5054575;28;20455;-84
2022/12/04 01:17:41;;;;;;;105.13;31.38;;;-0.70;99.90;;;;;;5070402;28;20038;-85
2022/12/04 01:20:07;;;;;;;98.28;31.02;;;-0.70;99.90;;;;;;5057016;28;20024;-85
2022/12/04 01:22:33;;;;;;;105.60;33.08;;;-0.70;99.90;;;;;;5071529;28;20024;-85
2022/12/04 01:24:59;;;;;;;99.95;31.08;;;-0.70;99.90;;;;;;5049684;28;20115;-85
2022/12/04 01:27:25;;;;;;;87.93;28.65;;;-0.60;99.90;;;;;;5071631;28;20541;-85
2022/12/04 01:29:50;;;;;;;99.32;29.25;;;-0.70;99.90;;;;;;5072687;28;20036;-85
2022/12/04 01:32:16;;;;;;;88.63;28.48;;;-0.70;99.90;;;;;;5071214;28;20028;-85
2022/12/04 01:34:42;;;;;;;92.15;28.20;;;-0.70;99.90;;;;;;5068059;28;20029;-85
2022/12/04 01:37:07;;;;;;;83.80;28.85;;;-0.70;99.90;;;;;;5056133;28;20383;-85
2022/12/04 01:39:35;;;;;;;84.55;27.48;;;-0.60;99.90;;;;;;5071457;28;20365;-84
2022/12/04 01:42:01;;;;;;;79.68;27.17;;;-0.60;99.90;;;;;;5067414;28;20028;-85
2022/12/04 01:44:29;;;;;;;94.03;29.73;;;-0.60;99.90;;;;;;5065341;28;20035;-85
2022/12/04 01:47:00;;;;;;;88.40;28.65;;;-0.60;99.90;;;;;;5068214;28;20818;-85
2022/12/04 01:49:41;;;;;;;83.40;28.48;;;-0.60;99.90;;;;;;5071376;28;20422;-85
2022/12/04 01:52:15;;;;;;;91.60;30.02;;;-0.50;99.90;;;;;;5062515;28;20439;-85
2022/12/04 01:54:46;;;;;;;78.90;27.30;;;-0.50;99.90;;;;;;5071254;28;20031;-85
2022/12/04 01:57:18;;;;;;;89.90;28.80;;;-0.50;99.90;;;;;;5064672;28;20117;-85
2022/12/04 01:59:50;;;;;;;92.95;28.60;;;-0.50;99.90;;;;;;5067753;28;20040;-85
2022/12/04 02:02:21;;;;;;;81.40;27.15;;;-0.50;99.90;;;;;;5071351;28;20020;-85
2022/12/04 02:04:47;;;;;;;74.00;24.85;;;-0.50;99.90;;;;;;5070176;28;20475;-85
2022/12/04 02:07:13;;;;;;;87.47;27.95;;;-0.50;99.90;;;;;;5069513;28;20390;-85
2022/12/04 02:09:39;;;;;;;79.82;26.42;;;-0.50;99.90;;;;;;5049422;28;20025;-85
2022/12/04 02:12:33;;;;;;;82.68;26.88;;;-0.40;99.90;;;;;;5070788;28;20116;-85
2022/12/04 02:15:14;;;;;;;79.40;28.00;;;-0.50;99.90;;;;;;5084124;28;20669;-85
2022/12/04 02:18:02;;;;;;;83.38;27.80;;;-0.40;99.90;;;;;;5081364;28;20029;-85
2022/12/04 02:20:48;;;;;;;81.78;25.60;;;-0.40;99.90;;;;;;5067172;28;20114;-85
2022/12/04 02:23:50;;;;;;;86.85;26.73;;;-0.40;99.90;;;;;;5085183;28;20040;-85
2022/12/04 02:26:40;;;;;;;81.35;26.52;;;-0.50;99.90;;;;;;5073503;28;20036;-85
2022/12/04 02:29:40;;;;;;;90.35;27.23;;;-0.40;99.90;;;;;;5074089;28;20067;-86
2022/12/04 02:32:30;;;;;;;88.55;25.95;;;-0.40;99.90;;;;;;5088666;28;20060;-85
2022/12/04 02:35:25;;;;;;;78.53;26.55;;;-0.40;99.90;;;;;;5074671;28;20032;-85
2022/12/04 02:38:09;;;;;;;84.28;27.27;;;-0.40;99.90;;;;;;5060503;28;20377;-85
2022/12/04 02:40:49;;;;;;;87.93;25.58;;;-0.40;99.90;;;;;;5068537;28;20032;-85
2022/12/04 02:43:19;;;;;;;92.18;28.80;;;-0.40;99.90;;;;;;5067561;28;20485;-85
2022/12/04 02:46:10;;;;;;;81.65;26.83;;;-0.30;99.90;;;;;;5073926;28;20033;-85
2022/12/04 02:48:40;;;;;;;86.38;26.40;;;-0.30;99.90;;;;;;5073511;28;20040;-85
2022/12/04 02:51:07;;;;;;;92.40;29.00;;;-0.30;99.90;;;;;;5074023;28;20029;-85
2022/12/04 02:53:37;;;;;;;82.13;25.70;;;-0.30;99.90;;;;;;5073816;28;20041;-85
2022/12/04 02:56:11;;;;;;;83.68;26.05;;;-0.30;99.90;;;;;;5078108;28;20074;-85
2022/12/04 02:58:43;;;;;;;101.07;28.05;;;-0.30;99.90;;;;;;5081478;28;20400;-85
2022/12/04 03:01:19;;;;;;;90.80;29.48;;;-0.30;99.90;;;;;;5072417;28;20028;-85
2022/12/04 03:04:17;;;;;;;79.18;27.88;;;-0.30;99.90;;;;;;5076388;28;20036;-85
2022/12/04 03:06:48;;;;;;;79.97;28.05;;;-0.30;99.90;;;;;;5079887;28;20755;-85
2022/12/04 03:09:18;;;;;;;89.77;26.10;;;-0.20;99.90;;;;;;5080250;28;20078;-85
2022/12/04 03:11:56;;;;;;;86.75;26.38;;;-0.30;99.90;;;;;;5086735;28;20036;-85
2022/12/04 03:14:32;;;;;;;76.35;26.05;;;-0.20;99.90;;;;;;5082836;28;20025;-85
2022/12/04 03:17:04;;;;;;;79.95;25.83;;;-0.20;99.90;;;;;;5073242;28;20050;-85
2022/12/04 03:19:40;;;;;;;84.30;26.02;;;-0.20;99.90;;;;;;5068746;28;20085;-85
2022/12/04 03:22:09;;;;;;;80.95;26.05;;;-0.30;99.90;;;;;;5073806;28;20484;-85
2022/12/04 03:24:43;;;;;;;79.57;25.42;;;-0.30;99.90;;;;;;5080673;28;20040;-85
2022/12/04 03:27:32;;;;;;;72.35;24.90;;;-0.20;99.90;;;;;;5056236;28;20039;-85
2022/12/04 03:30:05;;;;;;;87.03;26.73;;;-0.20;99.90;;;;;;5068535;28;20155;-85
2022/12/04 03:32:43;;;;;;;78.13;24.70;;;-0.10;99.90;;;;;;5066686;28;20035;-85
2022/12/04 03:35:50;;;;;;;69.07;23.58;;;-0.20;99.90;;;;;;5064640;28;20028;-85
2022/12/04 03:38:19;;;;;;;87.13;26.35;;;-0.20;99.90;;;;;;5055511;28;20025;-85
2022/12/04 03:41:09;;;;;;;70.80;25.75;;;-0.20;99.90;;;;;;5067906;28;20621;-85
2022/12/04 03:43:47;;;;;;;70.40;23.50;;;-0.20;99.90;;;;;;5080826;28;20037;-85
2022/12/04 03:46:59;;;;;;;69.65;22.33;;;-0.20;99.90;;;;;;5071678;28;20025;-85
2022/12/04 03:49:31;;;;;;;64.63;22.45;;;-0.20;99.90;;;;;;4957089;28;20457;-85
2022/12/04 03:52:07;;;;;;;69.38;24.67;;;-0.20;99.90;;;;;;4957004;28;20535;-85
2022/12/04 03:54:39;;;;;;;70.00;24.08;;;-0.20;99.90;;;;;;5015644;28;20502;-85
2022/12/04 03:57:12;;;;;;;69.57;24.58;;;-0.20;99.90;;;;;;5064125;28;20091;-86
2022/12/04 03:59:57;;;;;;;76.70;24.27;;;-0.20;99.90;;;;;;5064788;28;20439;-85
2022/12/04 04:02:27;;;;;;;69.13;23.55;;;-0.20;99.90;;;;;;5069372;28;20036;-85
2022/12/04 04:04:57;;;;;;;71.32;23.33;;;-0.20;99.90;;;;;;5051466;28;20032;-85
2022/12/04 04:07:29;;;;;;;76.63;24.80;;;-0.20;99.90;;;;;;5069382;28;20028;-85
2022/12/04 04:09:59;;;;;;;81.63;24.73;;;-0.10;99.90;;;;;;5054788;28;20025;-85
2022/12/04 04:12:31;;;;;;;77.00;24.60;;;-0.20;99.90;;;;;;5066895;28;20024;-85
2022/12/04 04:26:33;;;;;;;77.88;24.48;;;-0.10;99.90;;;;;;5078166;28;20105;-85
2022/12/04 04:28:59;;;;;;;78.55;25.63;;;-0.10;99.90;;;;;;5083989;28;20381;-85
2022/12/04 04:31:51;;;;;;;73.57;24.60;;;-0.10;99.90;;;;;;5071442;28;20046;-85
2022/12/04 04:34:19;;;;;;;65.95;21.88;;;0.00;99.90;;;;;;5071672;28;20384;-85
2022/12/04 04:36:54;;;;;;;67.10;23.45;;;-0.10;99.90;;;;;;5065986;28;20032;-85
2022/12/04 04:39:34;;;;;;;73.13;25.63;;;-0.10;99.90;;;;;;5074794;28;20028;-85
2022/12/04 04:42:18;;;;;;;67.40;23.85;;;-0.10;99.90;;;;;;5060250;28;20036;-85
2022/12/04 04:44:51;;;;;;;65.50;24.63;;;-0.10;99.90;;;;;;5065386;28;20032;-85
2022/12/04 04:47:38;;;;;;;68.05;22.30;;;0.00;99.90;;;;;;5060902;28;20028;-85
2022/12/04 04:50:08;;;;;;;71.25;22.83;;;-0.10;99.90;;;;;;5071690;28;20042;-85
2022/12/04 04:52:35;;;;;;;74.13;24.15;;;-0.10;99.90;;;;;;5071744;28;20032;-85
2022/12/04 04:55:02;;;;;;;71.10;22.92;;;-0.10;99.90;;;;;;5070921;28;20039;-85
2022/12/04 04:57:34;;;;;;;74.25;23.98;;;-0.10;99.90;;;;;;5059923;28;20025;-85
2022/12/04 05:00:04;;;;;;;66.68;23.52;;;-0.10;99.90;;;;;;5068990;28;20036;-85
2022/12/04 05:02:32;;;;;;;71.43;22.83;;;-0.10;99.90;;;;;;5059253;28;20029;-85
2022/12/04 05:04:58;;;;;;;72.28;25.13;;;0.00;99.90;;;;;;5066288;28;20089;-85
2022/12/04 05:07:23;;;;;;;71.75;24.08;;;0.00;99.90;;;;;;5070678;28;20033;-85
2022/12/04 05:09:49;;;;;;;59.08;22.90;;;0.00;99.90;;;;;;5071120;28;20032;-85
2022/12/04 05:12:15;;;;;;;63.10;24.85;;;0.00;99.90;;;;;;5070280;28;20028;-85
2022/12/04 05:14:41;;;;;;;67.38;22.05;;;-0.10;99.90;;;;;;5048797;28;20395;-85
2022/12/04 05:17:06;;;;;;;64.45;22.98;;;0.00;99.90;;;;;;5070989;28;20113;-85
2022/12/04 05:22:31;;;;;;;68.53;23.60;;;0.00;99.90;;;;;;5084221;28;20166;-84
2022/12/04 05:24:58;;;;;;;69.40;25.33;;;0.00;99.90;;;;;;5083040;28;20036;-85
2022/12/04 05:27:25;;;;;;;67.63;24.20;;;0.00;99.90;;;;;;5068136;28;20064;-85
2022/12/04 05:29:55;;;;;;;69.38;24.73;;;0.00;99.90;;;;;;5070813;28;20016;-85
2022/12/04 05:32:23;;;;;;;65.07;22.98;;;0.00;99.90;;;;;;5070123;28;20020;-85
2022/12/04 05:34:50;;;;;;;72.45;24.58;;;0.10;99.90;;;;;;5078431;28;20479;-85
2022/12/04 05:37:16;;;;;;;66.88;23.45;;;0.00;99.90;;;;;;5068654;28;20021;-85
2022/12/04 05:39:42;;;;;;;74.40;22.65;;;0.10;99.90;;;;;;5066987;28;20033;-85
2022/12/04 05:42:08;;;;;;;72.07;23.48;;;0.10;99.90;;;;;;5087043;28;20032;-84
2022/12/04 05:44:34;;;;;;;63.80;22.77;;;0.00;99.90;;;;;;5070068;28;20158;-85
2022/12/04 05:47:00;;;;;;;67.93;23.75;;;0.00;99.90;;;;;;5077599;28;20166;-85
2022/12/04 05:49:28;;;;;;;57.42;21.67;;;0.00;99.90;;;;;;5046373;28;20025;-85
2022/12/04 05:51:54;;;;;;;67.90;22.85;;;0.00;99.90;;;;;;5059787;28;20228;-85
2022/12/04 05:54:20;;;;;;;75.63;23.55;;;0.00;99.90;;;;;;5069907;28;20036;-85
2022/12/04 05:56:46;;;;;;;61.10;22.67;;;0.00;99.90;;;;;;5050859;28;20074;-85
2022/12/04 05:59:12;;;;;;;73.90;23.67;;;0.00;99.90;;;;;;5071096;28;20035;-84
2022/12/04 06:01:39;;;;;;;75.10;23.75;;;0.00;99.90;;;;;;5073846;28;20446;-85
2022/12/04 06:04:04;;;;;;;73.65;23.70;;;0.00;99.90;;;;;;5080350;28;20051;-85
2022/12/04 06:06:30;;;;;;;72.45;24.95;;;0.00;99.90;;;;;;5057275;28;20115;-85
2022/12/04 06:08:57;;;;;;;65.57;21.75;;;0.10;99.90;;;;;;5072260;28;20476;-85
2022/12/04 06:11:29;;;;;;;86.72;24.58;;;0.10;99.90;;;;;;5054535;28;20147;-85
2022/12/04 06:13:55;;;;;;;85.28;23.83;;;0.00;99.90;;;;;;5073849;28;20102;-85
2022/12/04 06:16:24;;;;;;;78.75;26.00;;;0.00;99.90;;;;;;5053587;28;20025;-85
2022/12/04 06:18:53;;;;;;;72.22;23.27;;;0.10;99.90;;;;;;5074138;28;20033;-85
2022/12/04 06:21:20;;;;;;;92.18;24.90;;;0.10;99.90;;;;;;5068970;28;20028;-85
2022/12/04 06:23:46;;;;;;;73.82;24.20;;;0.10;99.90;;;;;;5067224;28;20123;-85
2022/12/04 06:26:12;;;;;;;81.03;23.27;;;0.10;99.90;;;;;;5073352;28;20103;-85
2022/12/04 06:28:37;;;;;;;70.95;22.92;;;0.10;99.90;;;;;;5073537;28;20112;-85
2022/12/04 06:31:06;;;;;;;79.35;26.35;;;0.00;99.90;;;;;;5059588;28;20029;-85
2022/12/04 06:33:32;;;;;;;74.28;25.35;;;0.10;99.90;;;;;;5062379;28;20035;-86
2022/12/04 06:36:04;;;;;;;83.25;26.42;;;0.10;99.90;;;;;;5073431;28;20060;-85
2022/12/04 06:38:31;;;;;;;80.45;25.08;;;0.10;99.90;;;;;;5068336;28;20091;-85
2022/12/04 06:40:56;;;;;;;82.68;25.90;;;0.10;99.90;;;;;;5066332;28;20040;-85
2022/12/04 06:43:23;;;;;;;79.15;25.08;;;0.10;99.90;;;;;;5073390;28;20024;-85
2022/12/04 06:45:58;;;;;;;88.15;24.35;;;0.10;99.90;;;;;;5072684;28;20083;-86
2022/12/04 06:48:23;;;;;;;72.80;23.52;;;0.10;99.90;;;;;;5071849;28;20090;-86
2022/12/04 06:50:56;;;;;;;73.70;24.48;;;0.10;99.90;;;;;;5073028;28;20104;-85
2022/12/04 06:53:22;;;;;;;81.10;25.95;;;0.10;99.90;;;;;;5061895;28;20025;-85
2022/12/04 06:55:47;;;;;;;71.47;23.00;;;0.10;99.90;;;;;;5065164;28;20036;-86
2022/12/04 06:58:13;;;;;;;90.18;27.15;;;0.10;99.90;;;;;;5067519;28;20051;-86
2022/12/04 07:00:39;;;;;;;100.47;28.40;;;0.10;99.90;;;;;;5072722;28;20036;-86
2022/12/04 07:03:05;;;;;;;105.38;34.05;;;0.10;99.90;;;;;;5054721;28;20041;-87
2022/12/04 07:05:30;;;;;;;226.60;64.07;;;0.10;99.90;;;;;;5068222;28;20043;-87
2022/12/04 07:07:56;;;;;;;94.20;34.67;;;0.10;99.90;;;;;;5068013;28;20020;-88
2022/12/04 07:10:22;;;;;;;80.45;25.90;;;0.10;99.90;;;;;;5073902;28;20029;-87
2022/12/04 07:12:48;;;;;;;74.85;24.33;;;0.10;99.90;;;;;;5082664;28;20066;-88
2022/12/04 07:15:14;;;;;;;77.30;25.85;;;0.10;99.90;;;;;;5057885;28;20053;-87
2022/12/04 07:17:40;;;;;;;87.45;25.10;;;0.10;99.90;;;;;;5046962;28;20033;-88
2022/12/04 07:20:06;;;;;;;82.15;28.80;;;0.10;99.90;;;;;;5071439;28;20038;-87
2022/12/04 07:22:32;;;;;;;72.07;22.00;;;0.10;99.90;;;;;;5067143;28;20415;-87
2022/12/04 07:24:57;;;;;;;96.03;26.52;;;0.20;99.90;;;;;;5073052;28;20027;-88
2022/12/04 07:27:23;;;;;;;85.93;28.88;;;0.20;99.90;;;;;;5071936;28;20028;-87
2022/12/04 07:29:51;;;;;;;80.78;24.75;;;0.20;99.90;;;;;;5071680;28;20435;-87
2022/12/04 07:32:17;;;;;;;69.40;24.70;;;0.20;99.90;;;;;;5061412;28;20794;-88
2022/12/04 07:34:43;;;;;;;74.35;26.10;;;0.20;99.90;;;;;;5071690;28;20024;-87
2022/12/04 07:37:09;;;;;;;75.82;24.83;;;0.20;99.90;;;;;;5065638;28;20619;-87
2022/12/04 07:39:34;;;;;;;81.07;24.42;;;0.20;99.90;;;;;;5064748;28;20364;-88
2022/12/04 07:42:00;;;;;;;92.13;27.42;;;0.30;99.90;;;;;;5085788;28;20114;-87
2022/12/04 07:44:26;;;;;;;72.15;25.20;;;0.30;99.90;;;;;;5058993;28;20024;-88
2022/12/04 07:46:51;;;;;;;110.30;26.15;;;0.30;99.90;;;;;;5071124;28;20029;-88
2022/12/04 07:49:17;;;;;;;94.15;26.88;;;0.30;99.90;;;;;;5063197;28;20495;-88
2022/12/04 07:51:43;;;;;;;83.28;25.83;;;0.30;99.90;;;;;;5072906;28;20024;-87
2022/12/04 07:54:09;;;;;;;93.28;26.30;;;0.30;99.90;;;;;;5064589;28;20420;-88
2022/12/04 07:56:35;;;;;;;78.80;24.42;;;0.30;99.90;;;;;;5053482;28;20479;-88
2022/12/04 07:59:00;;;;;;;76.38;25.67;;;0.30;99.90;;;;;;5084235;28;20067;-87
2022/12/04 08:01:26;;;;;;;82.03;26.05;;;0.30;99.90;;;;;;5055247;28;20115;-87
2022/12/04 08:03:55;;;;;;;75.97;23.75;;;0.40;99.90;;;;;;5054492;28;20039;-88
2022/12/04 08:06:22;;;;;;;88.63;27.92;;;0.40;99.90;;;;;;5054872;28;20035;-87
2022/12/04 08:08:49;;;;;;;79.78;26.25;;;0.40;99.90;;;;;;5066442;28;20020;-88
2022/12/04 08:11:21;;;;;;;90.35;28.70;;;0.40;99.90;;;;;;5055461;28;20029;-87
2022/12/04 08:13:47;;;;;;;89.82;29.83;;;0.40;99.90;;;;;;5047581;28;20055;-86
2022/12/04 08:16:14;;;;;;;95.55;25.52;;;0.40;99.90;;;;;;5070021;28;20024;-86
2022/12/04 08:18:45;;;;;;;83.78;25.92;;;0.40;99.90;;;;;;5063845;28;20035;-86
2022/12/04 08:21:13;;;;;;;79.00;24.95;;;0.40;99.90;;;;;;5075116;28;20029;-86
2022/12/04 08:23:41;;;;;;;81.15;24.70;;;0.40;99.90;;;;;;5054008;28;20480;-86
2022/12/04 08:26:07;;;;;;;92.53;27.55;;;0.50;99.90;;;;;;5053644;28;20023;-86
2022/12/04 08:28:34;;;;;;;82.72;28.75;;;0.50;99.90;;;;;;5071569;28;20025;-86
2022/12/04 08:31:05;;;;;;;86.03;26.55;;;0.60;99.90;;;;;;5075942;28;20372;-88
2022/12/04 08:33:32;;;;;;;76.00;26.48;;;0.50;99.90;;;;;;5070917;28;20036;-87
2022/12/04 08:35:57;;;;;;;69.93;26.73;;;0.50;99.90;;;;;;5073208;28;20025;-88
2022/12/04 08:38:23;;;;;;;73.55;25.48;;;0.50;99.90;;;;;;5068783;28;20054;-87
2022/12/04 08:40:49;;;;;;;76.20;25.40;;;0.60;99.90;;;;;;5065910;28;20024;-87
2022/12/04 08:43:15;;;;;;;74.45;25.48;;;0.60;99.90;;;;;;5051690;28;20076;-87
2022/12/04 08:45:41;;;;;;;74.93;25.33;;;0.60;99.90;;;;;;5065704;28;20023;-87
2022/12/04 08:48:06;;;;;;;65.30;23.40;;;0.60;99.90;;;;;;5053331;28;20460;-87
2022/12/04 08:50:32;;;;;;;66.35;22.17;;;0.70;99.90;;;;;;5055230;28;20120;-87
2022/12/04 08:52:59;;;;;;;62.90;22.80;;;0.70;99.90;;;;;;5062142;28;20128;-87
2022/12/04 08:55:24;;;;;;;62.50;21.90;;;0.70;99.90;;;;;;5052278;28;20382;-87
2022/12/04 08:57:51;;;;;;;72.45;23.50;;;0.70;99.90;;;;;;5067838;28;20115;-88
2022/12/04 09:00:18;;;;;;;56.95;21.35;;;0.70;99.90;;;;;;5051662;28;20021;-87
2022/12/04 09:02:48;;;;;;;67.30;21.63;;;0.70;99.90;;;;;;5067945;28;20477;-87
2022/12/04 09:05:13;;;;;;;67.45;22.20;;;0.80;99.90;;;;;;5064766;28;20027;-87
2022/12/04 09:07:39;;;;;;;58.58;21.83;;;0.80;99.90;;;;;;5068472;28;20032;-88
2022/12/04 09:10:05;;;;;;;59.60;21.35;;;0.80;99.90;;;;;;5068495;28;20791;-88
2022/12/04 09:12:31;;;;;;;59.95;21.83;;;0.90;99.90;;;;;;5069246;28;20025;-87
2022/12/04 09:14:57;;;;;;;61.38;22.38;;;0.90;99.90;;;;;;5066658;28;20021;-87
2022/12/04 09:17:22;;;;;;;56.45;22.77;;;0.90;99.90;;;;;;5064919;28;20025;-87
2022/12/04 09:19:49;;;;;;;57.88;22.77;;;1.00;99.90;;;;;;5085337;28;20035;-87
2022/12/04 09:22:14;;;;;;;54.05;21.23;;;1.00;99.90;;;;;;5081980;28;20386;-88
2022/12/04 09:24:41;;;;;;;50.83;21.58;;;1.00;99.90;;;;;;5060364;28;20032;-87
2022/12/04 09:27:06;;;;;;;47.63;20.40;;;1.10;99.90;;;;;;5065518;28;20025;-88
2022/12/04 09:29:32;;;;;;;49.92;21.17;;;1.00;99.90;;;;;;5078310;28;20027;-89
2022/12/04 09:31:58;;;;;;;53.50;19.77;;;1.00;99.90;;;;;;5070795;28;20031;-88
2022/12/04 09:34:24;;;;;;;56.97;20.73;;;1.10;99.90;;;;;;5055232;28;20024;-88
2022/12/04 09:36:50;;;;;;;53.83;20.90;;;1.00;99.90;;;;;;5070911;28;20033;-88
2022/12/04 09:39:16;;;;;;;49.47;20.75;;;1.10;99.90;;;;;;5069906;28;20040;-88
2022/12/04 09:42:18;;;;;;;52.65;21.05;;;1.00;99.90;;;;;;5080662;28;20033;-88
2022/12/04 09:44:51;;;;;;;50.78;21.55;;;1.10;99.90;;;;;;5047137;28;20035;-88
2022/12/04 09:47:30;;;;;;;54.70;21.58;;;1.10;99.90;;;;;;5050510;28;20029;-88
2022/12/04 09:50:00;;;;;;;55.78;21.05;;;1.10;99.90;;;;;;5075859;28;20021;-87
2022/12/04 09:52:44;;;;;;;55.65;20.98;;;1.10;99.90;;;;;;5048668;28;20028;-88
2022/12/04 09:55:22;;;;;;;50.22;20.23;;;1.10;99.90;;;;;;5080419;28;20120;-87
2022/12/04 09:57:51;;;;;;;56.40;22.23;;;1.20;99.90;;;;;;5057122;28;20577;-88
2022/12/04 10:00:19;;;;;;;55.33;21.13;;;1.10;99.90;;;;;;5065718;28;20745;-87
2022/12/04 10:02:59;;;;;;;53.58;21.90;;;1.10;99.90;;;;;;5051950;28;20024;-89
2022/12/04 10:05:42;;;;;;;51.97;21.02;;;1.20;99.90;;;;;;5071051;28;20029;-87
2022/12/04 10:08:36;;;;;;;47.00;19.63;;;1.30;99.90;;;;;;5052113;28;20021;-88
2022/12/04 10:11:31;;;;;;;47.78;20.20;;;1.20;99.90;;;;;;5062541;28;20040;-88
2022/12/04 10:14:09;;;;;;;50.35;19.60;;;1.20;99.90;;;;;;5080684;28;20131;-88
2022/12/04 10:16:50;;;;;;;47.97;18.55;;;1.30;99.90;;;;;;5047170;28;20530;-88
2022/12/04 10:19:45;;;;;;;47.88;19.35;;;1.30;99.90;;;;;;5066884;28;20035;-88
2022/12/04 10:22:17;;;;;;;46.70;18.85;;;1.30;99.90;;;;;;5064522;28;20610;-87
2022/12/04 10:24:45;;;;;;;40.20;18.00;;;1.30;99.90;;;;;;5051385;28;20036;-87
2022/12/04 10:27:39;;;;;;;52.75;18.45;;;1.20;99.90;;;;;;5059342;28;20036;-88
2022/12/04 10:30:27;;;;;;;45.35;19.15;;;1.20;99.90;;;;;;5046883;28;20501;-88
2022/12/04 10:33:17;;;;;;;54.88;21.75;;;1.20;99.90;;;;;;5058222;28;20039;-87
2022/12/04 10:35:46;;;;;;;50.70;19.77;;;1.30;99.90;;;;;;5053459;28;20021;-88
2022/12/04 10:38:22;;;;;;;43.45;18.63;;;1.30;99.90;;;;;;5051304;28;20032;-88
2022/12/04 10:40:54;;;;;;;58.22;19.42;;;1.40;99.90;;;;;;5068804;28;20660;-87
2022/12/04 10:43:47;;;;;;;49.60;21.33;;;1.40;99.90;;;;;;5060060;28;20479;-88
2022/12/04 10:46:34;;;;;;;46.20;20.00;;;1.40;99.90;;;;;;5069057;28;20070;-87
2022/12/04 10:49:21;;;;;;;47.92;20.05;;;1.40;99.90;;;;;;5065069;28;20030;-88
2022/12/04 10:51:48;;;;;;;43.95;19.52;;;1.50;99.90;;;;;;5069654;28;20050;-88
2022/12/04 10:54:32;;;;;;;46.20;21.30;;;1.60;99.90;;;;;;5071846;28;20401;-88
2022/12/04 10:57:04;;;;;;;42.17;19.55;;;1.50;99.90;;;;;;5062478;28;20024;-87
2022/12/04 10:59:30;;;;;;;;;;;1.60;99.90;;;;;;5074091;28;20086;-88
2022/12/04 11:02:24;;;;;;;51.33;21.63;;;1.60;99.90;;;;;;5085672;28;20356;-88
2022/12/04 11:04:57;;;;;;;62.75;25.92;;;1.60;99.90;;;;;;5068480;28;20032;-88
2022/12/04 11:07:27;;;;;;;38.90;18.00;;;1.70;99.90;;;;;;5068673;28;20016;-88
2022/12/04 11:10:04;;;;;;;40.42;16.65;;;1.70;99.90;;;;;;5051340;28;20021;-87
2022/12/04 11:12:31;;;;;;;42.50;18.02;;;1.60;99.90;;;;;;5050709;28;20396;-88
2022/12/04 11:15:06;;;;;;;36.80;17.13;;;1.60;99.90;;;;;;5073232;28;20115;-88
2022/12/04 11:17:32;;;;;;;42.42;19.92;;;1.70;99.90;;;;;;5056801;28;20492;-88
2022/12/04 11:20:04;;;;;;;40.95;19.13;;;1.70;99.90;;;;;;5076917;28;20029;-88
2022/12/04 11:22:58;;;;;;;43.53;20.10;;;1.60;99.90;;;;;;5073450;28;20119;-87
2022/12/04 11:25:34;;;;;;;39.65;18.00;;;1.70;99.90;;;;;;5072958;28;20032;-88
2022/12/04 11:28:02;;;;;;;38.00;17.58;;;1.70;99.90;;;;;;5072257;28;20032;-88
2022/12/04 11:30:30;;;;;;;37.88;16.88;;;1.70;99.90;;;;;;5099113;28;20036;-88
2022/12/04 11:32:56;;;;;;;39.47;17.83;;;1.70;99.90;;;;;;5081677;28;20502;-87
2022/12/04 11:35:27;;;;;;;41.88;19.25;;;1.70;99.90;;;;;;5071212;28;20036;-87
2022/12/04 11:38:08;;;;;;;44.72;17.83;;;1.70;99.90;;;;;;5065086;28;20048;-87
2022/12/04 11:40:35;;;;;;;40.00;16.73;;;1.70;99.90;;;;;;5073081;28;20024;-87
2022/12/04 11:43:02;;;;;;;42.33;17.13;;;1.60;99.90;;;;;;5073631;28;20060;-86
2022/12/04 11:45:28;;;;;;;35.85;16.45;;;1.60;99.90;;;;;;5065557;28;20029;-87
2022/12/04 11:47:57;;;;;;;44.75;18.17;;;1.50;99.90;;;;;;5075311;28;20012;-87
2022/12/04 11:50:36;;;;;;;44.47;18.10;;;1.50;99.90;;;;;;5067779;28;20069;-87
2022/12/04 11:53:32;;;;;;;46.90;19.27;;;1.60;99.90;;;;;;5067874;28;20020;-87
2022/12/04 11:56:22;;;;;;;38.92;18.10;;;1.70;99.90;;;;;;5074034;28;20085;-87
2022/12/04 11:59:10;;;;;;;44.08;18.55;;;1.70;99.90;;;;;;5076588;28;20086;-88
2022/12/04 12:02:09;;;;;;;46.42;18.58;;;1.70;99.90;;;;;;5061453;28;20047;-87
2022/12/04 12:05:01;;;;;;;42.83;17.65;;;1.80;99.90;;;;;;5074238;28;20479;-87
2022/12/04 12:07:49;;;;;;;42.38;18.60;;;1.80;99.90;;;;;;5071348;28;20041;-87
2022/12/04 12:10:19;;;;;;;44.72;18.75;;;1.80;99.90;;;;;;5076500;28;20029;-87
2022/12/04 12:13:10;;;;;;;50.75;21.67;;;1.70;99.90;;;;;;5072979;28;20075;-86
2022/12/04 12:15:44;;;;;;;41.65;18.63;;;1.70;99.90;;;;;;5084567;28;20067;-88
2022/12/04 12:18:19;;;;;;;46.72;19.55;;;1.70;99.90;;;;;;5050312;28;20023;-87
2022/12/04 12:25:09;;;;;;;53.63;20.38;;;1.70;99.90;;;;;;5067060;28;20052;-87
2022/12/04 12:27:53;;;;;;;55.65;23.00;;;1.60;99.90;;;;;;5069514;28;20028;-87
2022/12/04 12:30:25;;;;;;;55.25;22.58;;;1.70;99.90;;;;;;5053027;28;20025;-87
2022/12/04 12:33:28;;;;;;;58.40;21.27;;;1.70;99.90;;;;;;5054703;28;20676;-87
2022/12/04 12:36:07;;;;;;;49.58;21.17;;;1.70;99.90;;;;;;5090130;28;20028;-87
2022/12/04 12:38:39;;;;;;;54.38;21.52;;;1.80;99.90;;;;;;5074481;28;20380;-87
2022/12/04 12:41:19;;;;;;;45.97;21.02;;;1.80;99.90;;;;;;5062537;28;20025;-87
2022/12/04 12:43:53;;;;;;;48.08;20.95;;;1.80;99.90;;;;;;5053435;28;20119;-86
2022/12/04 12:46:29;;;;;;;61.92;24.50;;;1.80;99.90;;;;;;5073528;28;20044;-86
2022/12/04 12:49:23;;;;;;;92.18;40.50;;;1.80;99.90;;;;;;5071275;28;20194;-87
2022/12/04 12:52:19;;;;;;;71.53;26.23;;;1.90;99.90;;;;;;5062344;28;20029;-86
2022/12/04 12:54:54;;;;;;;66.05;24.55;;;1.80;99.90;;;;;;5082343;28;20040;-87
2022/12/04 12:57:41;;;;;;;78.95;30.73;;;1.90;99.90;;;;;;5039939;28;20031;-86
2022/12/04 13:00:18;;;;;;;59.83;25.55;;;1.80;99.90;;;;;;5067083;28;20032;-87
2022/12/04 13:03:05;;;;;;;49.47;21.27;;;1.90;99.90;;;;;;5100177;28;20439;-87
2022/12/04 13:05:45;;;;;;;106.07;49.47;;;1.80;99.90;;;;;;5077175;28;20054;-87
2022/12/04 13:08:33;;;;;;;79.43;35.08;;;1.80;99.90;;;;;;5071278;28;20029;-87
2022/12/04 13:11:18;;;;;;;67.75;28.08;;;1.80;99.90;;;;;;5044395;28;20058;-87
2022/12/04 13:14:01;;;;;;;63.53;25.77;;;1.80;99.90;;;;;;5069232;28;20028;-86
2022/12/04 13:16:26;;;;;;;67.30;27.67;;;1.80;99.90;;;;;;5059351;28;20434;-87
2022/12/04 13:19:04;;;;;;;59.85;22.48;;;1.80;99.90;;;;;;5082286;28;20064;-87